sensor_id;sensor_type;location;lat;lon;timestamp;P1;durP1;ratioP1;P2;durP2;ratioP2
26325;SDS011;14032;52.510;7.342;2023-07-13T00:00:27;8.98;;;2.33;;
26325;SDS011;14032;52.510;7.342;2023-07-13T00:02:53;7.38;;;1.70;;
26325;SDS011;14032;52.510;7.342;2023-07-13T00:05:20;9.27;;;1.90;;
26325;SDS011;14032;52.510;7.342;2023-07-13T00:07:46;10.25;;;1.70;;
26325;SDS011;14032;52.510;7.342;2023-07-13T00:10:13;9.75;;;1.50;;
26325;SDS011;14032;52.510;7.342;2023-07-13T00:12:38;11.43;;;1.98;;
26325;SDS011;14032;52.510;7.342;2023-07-13T00:15:06;13.57;;;2.20;;
26325;SDS011;14032;52.510;7.342;2023-07-13T00:17:36;6.70;;;1.65;;
26325;SDS011;14032;52.510;7.342;2023-07-13T00:20:04;9.32;;;1.88;;
26325;SDS011;14032;52.510;7.342;2023-07-13T00:22:30;11.80;;;2.53;;
26325;SDS011;14032;52.510;7.342;2023-07-13T00:24:56;6.47;;;1.70;;
26325;SDS011;14032;52.510;7.342;2023-07-13T00:27:22;8.05;;;1.80;;
26325;SDS011;14032;52.510;7.342;2023-07-13T00:29:48;11.85;;;2.03;;
26325;SDS011;14032;52.510;7.342;2023-07-13T00:32:13;11.13;;;2.15;;
26325;SDS011;14032;52.510;7.342;2023-07-13T00:34:39;8.52;;;2.05;;
26325;SDS011;14032;52.510;7.342;2023-07-13T00:37:05;6.60;;;1.98;;
26325;SDS011;14032;52.510;7.342;2023-07-13T00:39:32;11.00;;;1.88;;
26325;SDS011;14032;52.510;7.342;2023-07-13T00:41:59;10.73;;;1.80;;
26325;SDS011;14032;52.510;7.342;2023-07-13T00:44:25;10.77;;;1.98;;
26325;SDS011;14032;52.510;7.342;2023-07-13T00:46:51;8.82;;;1.60;;
26325;SDS011;14032;52.510;7.342;2023-07-13T00:49:18;8.15;;;1.90;;
26325;SDS011;14032;52.510;7.342;2023-07-13T00:51:49;8.88;;;1.63;;
26325;SDS011;14032;52.510;7.342;2023-07-13T00:54:20;8.57;;;1.83;;
26325;SDS011;14032;52.510;7.342;2023-07-13T00:56:48;8.23;;;1.60;;
26325;SDS011;14032;52.510;7.342;2023-07-13T00:59:18;12.10;;;1.88;;
26325;SDS011;14032;52.510;7.342;2023-07-13T01:01:46;8.50;;;2.00;;
26325;SDS011;14032;52.510;7.342;2023-07-13T01:04:12;8.32;;;1.80;;
26325;SDS011;14032;52.510;7.342;2023-07-13T01:06:39;8.00;;;1.90;;
26325;SDS011;14032;52.510;7.342;2023-07-13T01:09:06;7.88;;;2.00;;
26325;SDS011;14032;52.510;7.342;2023-07-13T01:11:33;10.60;;;2.08;;
26325;SDS011;14032;52.510;7.342;2023-07-13T01:14:00;9.07;;;2.30;;
26325;SDS011;14032;52.510;7.342;2023-07-13T01:16:28;9.38;;;1.85;;
26325;SDS011;14032;52.510;7.342;2023-07-13T01:18:56;9.30;;;2.20;;
26325;SDS011;14032;52.510;7.342;2023-07-13T01:21:27;9.05;;;2.15;;
26325;SDS011;14032;52.510;7.342;2023-07-13T01:23:55;6.97;;;1.63;;
26325;SDS011;14032;52.510;7.342;2023-07-13T01:26:20;7.72;;;2.10;;
26325;SDS011;14032;52.510;7.342;2023-07-13T01:28:46;7.63;;;2.30;;
26325;SDS011;14032;52.510;7.342;2023-07-13T01:31:11;8.77;;;2.10;;
26325;SDS011;14032;52.510;7.342;2023-07-13T01:33:38;14.70;;;2.10;;
26325;SDS011;14032;52.510;7.342;2023-07-13T01:36:08;6.25;;;1.63;;
26325;SDS011;14032;52.510;7.342;2023-07-13T01:38:35;10.52;;;2.28;;
26325;SDS011;14032;52.510;7.342;2023-07-13T01:41:01;11.52;;;2.05;;
26325;SDS011;14032;52.510;7.342;2023-07-13T01:43:27;14.30;;;2.22;;
26325;SDS011;14032;52.510;7.342;2023-07-13T01:45:53;9.52;;;2.20;;
26325;SDS011;14032;52.510;7.342;2023-07-13T01:48:18;10.48;;;2.33;;
26325;SDS011;14032;52.510;7.342;2023-07-13T01:50:45;12.07;;;2.42;;
26325;SDS011;14032;52.510;7.342;2023-07-13T01:53:10;12.00;;;2.33;;
26325;SDS011;14032;52.510;7.342;2023-07-13T01:55:36;8.90;;;2.30;;
26325;SDS011;14032;52.510;7.342;2023-07-13T01:58:02;11.02;;;2.45;;
26325;SDS011;14032;52.510;7.342;2023-07-13T02:00:28;8.02;;;2.05;;
26325;SDS011;14032;52.510;7.342;2023-07-13T02:02:54;13.73;;;2.95;;
26325;SDS011;14032;52.510;7.342;2023-07-13T02:05:19;7.88;;;2.10;;
26325;SDS011;14032;52.510;7.342;2023-07-13T02:07:45;10.23;;;2.33;;
26325;SDS011;14032;52.510;7.342;2023-07-13T02:10:11;9.77;;;2.40;;
26325;SDS011;14032;52.510;7.342;2023-07-13T02:12:37;7.35;;;2.30;;
26325;SDS011;14032;52.510;7.342;2023-07-13T02:15:04;11.32;;;2.63;;
26325;SDS011;14032;52.510;7.342;2023-07-13T02:17:30;13.88;;;2.67;;
26325;SDS011;14032;52.510;7.342;2023-07-13T02:19:56;9.70;;;3.00;;
26325;SDS011;14032;52.510;7.342;2023-07-13T02:22:21;11.32;;;2.78;;
26325;SDS011;14032;52.510;7.342;2023-07-13T02:24:47;9.23;;;2.25;;
26325;SDS011;14032;52.510;7.342;2023-07-13T02:27:13;13.57;;;2.58;;
26325;SDS011;14032;52.510;7.342;2023-07-13T02:29:38;9.32;;;2.75;;
26325;SDS011;14032;52.510;7.342;2023-07-13T02:32:04;10.95;;;2.83;;
26325;SDS011;14032;52.510;7.342;2023-07-13T02:34:30;11.77;;;2.72;;
26325;SDS011;14032;52.510;7.342;2023-07-13T02:36:56;10.88;;;2.45;;
26325;SDS011;14032;52.510;7.342;2023-07-13T02:39:21;10.32;;;2.35;;
26325;SDS011;14032;52.510;7.342;2023-07-13T02:41:47;17.20;;;3.40;;
26325;SDS011;14032;52.510;7.342;2023-07-13T02:44:13;10.75;;;2.80;;
26325;SDS011;14032;52.510;7.342;2023-07-13T02:46:39;12.27;;;2.65;;
26325;SDS011;14032;52.510;7.342;2023-07-13T02:49:05;14.63;;;2.55;;
26325;SDS011;14032;52.510;7.342;2023-07-13T02:51:31;10.05;;;3.15;;
26325;SDS011;14032;52.510;7.342;2023-07-13T02:53:59;12.70;;;3.00;;
26325;SDS011;14032;52.510;7.342;2023-07-13T02:56:29;7.22;;;2.35;;
26325;SDS011;14032;52.510;7.342;2023-07-13T02:58:56;8.32;;;2.42;;
26325;SDS011;14032;52.510;7.342;2023-07-13T03:01:22;12.23;;;3.00;;
26325;SDS011;14032;52.510;7.342;2023-07-13T03:03:48;12.05;;;2.65;;
26325;SDS011;14032;52.510;7.342;2023-07-13T03:06:15;13.65;;;2.92;;
26325;SDS011;14032;52.510;7.342;2023-07-13T03:08:42;9.90;;;2.83;;
26325;SDS011;14032;52.510;7.342;2023-07-13T03:11:12;10.75;;;2.97;;
26325;SDS011;14032;52.510;7.342;2023-07-13T03:13:39;10.05;;;2.63;;
26325;SDS011;14032;52.510;7.342;2023-07-13T03:16:06;10.25;;;2.88;;
26325;SDS011;14032;52.510;7.342;2023-07-13T03:18:33;12.48;;;2.83;;
26325;SDS011;14032;52.510;7.342;2023-07-13T03:20:59;13.77;;;3.22;;
26325;SDS011;14032;52.510;7.342;2023-07-13T03:23:24;8.10;;;2.45;;
26325;SDS011;14032;52.510;7.342;2023-07-13T03:26:00;9.80;;;3.13;;
26325;SDS011;14032;52.510;7.342;2023-07-13T03:28:27;10.80;;;2.63;;
26325;SDS011;14032;52.510;7.342;2023-07-13T03:31:00;11.05;;;3.13;;
26325;SDS011;14032;52.510;7.342;2023-07-13T03:33:30;9.13;;;3.28;;
26325;SDS011;14032;52.510;7.342;2023-07-13T03:35:56;14.07;;;3.05;;
26325;SDS011;14032;52.510;7.342;2023-07-13T03:38:22;12.43;;;3.00;;
26325;SDS011;14032;52.510;7.342;2023-07-13T03:40:47;13.32;;;2.75;;
26325;SDS011;14032;52.510;7.342;2023-07-13T03:43:13;11.32;;;3.38;;
26325;SDS011;14032;52.510;7.342;2023-07-13T03:45:39;12.45;;;3.25;;
26325;SDS011;14032;52.510;7.342;2023-07-13T03:48:05;11.10;;;3.28;;
26325;SDS011;14032;52.510;7.342;2023-07-13T03:50:30;13.40;;;3.33;;
26325;SDS011;14032;52.510;7.342;2023-07-13T03:53:00;11.40;;;2.95;;
26325;SDS011;14032;52.510;7.342;2023-07-13T03:55:25;11.98;;;2.92;;
26325;SDS011;14032;52.510;7.342;2023-07-13T03:57:53;9.88;;;2.83;;
26325;SDS011;14032;52.510;7.342;2023-07-13T04:00:22;12.82;;;3.28;;
26325;SDS011;14032;52.510;7.342;2023-07-13T04:02:48;11.15;;;2.92;;
26325;SDS011;14032;52.510;7.342;2023-07-13T04:05:14;14.32;;;2.72;;
26325;SDS011;14032;52.510;7.342;2023-07-13T04:07:40;11.50;;;2.67;;
26325;SDS011;14032;52.510;7.342;2023-07-13T04:10:06;10.07;;;3.08;;
26325;SDS011;14032;52.510;7.342;2023-07-13T04:12:32;9.02;;;2.80;;
26325;SDS011;14032;52.510;7.342;2023-07-13T04:14:57;11.27;;;2.55;;
26325;SDS011;14032;52.510;7.342;2023-07-13T04:17:23;10.15;;;3.00;;
26325;SDS011;14032;52.510;7.342;2023-07-13T04:19:48;11.13;;;2.55;;
26325;SDS011;14032;52.510;7.342;2023-07-13T04:22:14;11.60;;;3.00;;
26325;SDS011;14032;52.510;7.342;2023-07-13T04:24:39;12.45;;;2.88;;
26325;SDS011;14032;52.510;7.342;2023-07-13T04:27:05;13.88;;;2.60;;
26325;SDS011;14032;52.510;7.342;2023-07-13T04:29:31;12.38;;;3.13;;
26325;SDS011;14032;52.510;7.342;2023-07-13T04:31:57;14.48;;;2.97;;
26325;SDS011;14032;52.510;7.342;2023-07-13T04:34:23;9.13;;;2.90;;
26325;SDS011;14032;52.510;7.342;2023-07-13T04:36:49;6.28;;;2.28;;
26325;SDS011;14032;52.510;7.342;2023-07-13T04:39:15;12.02;;;2.90;;
26325;SDS011;14032;52.510;7.342;2023-07-13T04:41:40;13.93;;;3.17;;
26325;SDS011;14032;52.510;7.342;2023-07-13T04:44:06;11.18;;;2.75;;
26325;SDS011;14032;52.510;7.342;2023-07-13T04:46:32;14.68;;;2.95;;
26325;SDS011;14032;52.510;7.342;2023-07-13T04:48:57;12.98;;;3.20;;
26325;SDS011;14032;52.510;7.342;2023-07-13T04:51:23;8.68;;;2.92;;
26325;SDS011;14032;52.510;7.342;2023-07-13T04:53:49;12.82;;;4.10;;
26325;SDS011;14032;52.510;7.342;2023-07-13T04:56:15;12.45;;;3.20;;
26325;SDS011;14032;52.510;7.342;2023-07-13T04:58:41;14.88;;;3.83;;
26325;SDS011;14032;52.510;7.342;2023-07-13T05:01:06;10.68;;;3.10;;
26325;SDS011;14032;52.510;7.342;2023-07-13T05:03:33;14.18;;;3.60;;
26325;SDS011;14032;52.510;7.342;2023-07-13T05:06:00;13.48;;;3.45;;
26325;SDS011;14032;52.510;7.342;2023-07-13T05:08:27;15.65;;;4.28;;
26325;SDS011;14032;52.510;7.342;2023-07-13T05:10:54;10.98;;;2.90;;
26325;SDS011;14032;52.510;7.342;2023-07-13T05:13:20;11.52;;;3.00;;
26325;SDS011;14032;52.510;7.342;2023-07-13T05:15:47;16.48;;;3.30;;
26325;SDS011;14032;52.510;7.342;2023-07-13T05:18:20;9.85;;;3.05;;
26325;SDS011;14032;52.510;7.342;2023-07-13T05:20:46;12.98;;;2.95;;
26325;SDS011;14032;52.510;7.342;2023-07-13T05:23:12;11.07;;;3.28;;
26325;SDS011;14032;52.510;7.342;2023-07-13T05:25:37;16.25;;;3.83;;
26325;SDS011;14032;52.510;7.342;2023-07-13T05:28:03;12.93;;;3.17;;
26325;SDS011;14032;52.510;7.342;2023-07-13T05:30:28;13.48;;;3.40;;
26325;SDS011;14032;52.510;7.342;2023-07-13T05:32:54;11.93;;;3.75;;
26325;SDS011;14032;52.510;7.342;2023-07-13T05:35:19;9.95;;;3.70;;
26325;SDS011;14032;52.510;7.342;2023-07-13T05:37:45;13.20;;;3.58;;
26325;SDS011;14032;52.510;7.342;2023-07-13T05:40:10;14.88;;;4.22;;
26325;SDS011;14032;52.510;7.342;2023-07-13T05:42:36;15.18;;;3.50;;
26325;SDS011;14032;52.510;7.342;2023-07-13T05:45:02;14.38;;;4.05;;
26325;SDS011;14032;52.510;7.342;2023-07-13T05:47:28;16.38;;;4.35;;
26325;SDS011;14032;52.510;7.342;2023-07-13T05:49:54;13.65;;;4.13;;
26325;SDS011;14032;52.510;7.342;2023-07-13T05:52:19;14.02;;;3.65;;
26325;SDS011;14032;52.510;7.342;2023-07-13T05:54:45;12.77;;;3.63;;
26325;SDS011;14032;52.510;7.342;2023-07-13T05:57:10;16.88;;;3.88;;
26325;SDS011;14032;52.510;7.342;2023-07-13T05:59:36;13.65;;;3.92;;
26325;SDS011;14032;52.510;7.342;2023-07-13T06:02:05;12.05;;;3.75;;
26325;SDS011;14032;52.510;7.342;2023-07-13T06:04:33;14.10;;;3.97;;
26325;SDS011;14032;52.510;7.342;2023-07-13T06:06:58;17.08;;;4.38;;
26325;SDS011;14032;52.510;7.342;2023-07-13T06:09:25;14.93;;;3.55;;
26325;SDS011;14032;52.510;7.342;2023-07-13T06:11:50;16.38;;;4.28;;
26325;SDS011;14032;52.510;7.342;2023-07-13T06:14:16;13.15;;;3.30;;
26325;SDS011;14032;52.510;7.342;2023-07-13T06:16:41;15.30;;;3.90;;
26325;SDS011;14032;52.510;7.342;2023-07-13T06:19:07;17.02;;;3.83;;
26325;SDS011;14032;52.510;7.342;2023-07-13T06:21:32;11.57;;;3.03;;
26325;SDS011;14032;52.510;7.342;2023-07-13T06:23:58;10.73;;;3.53;;
26325;SDS011;14032;52.510;7.342;2023-07-13T06:26:24;13.60;;;3.72;;
26325;SDS011;14032;52.510;7.342;2023-07-13T06:28:49;11.48;;;3.10;;
26325;SDS011;14032;52.510;7.342;2023-07-13T06:31:15;16.00;;;4.18;;
26325;SDS011;14032;52.510;7.342;2023-07-13T06:33:41;14.63;;;3.53;;
26325;SDS011;14032;52.510;7.342;2023-07-13T06:36:06;14.75;;;3.47;;
26325;SDS011;14032;52.510;7.342;2023-07-13T06:38:34;18.20;;;4.30;;
26325;SDS011;14032;52.510;7.342;2023-07-13T06:41:01;13.45;;;3.38;;
26325;SDS011;14032;52.510;7.342;2023-07-13T06:43:27;14.68;;;3.63;;
26325;SDS011;14032;52.510;7.342;2023-07-13T06:45:54;15.25;;;3.28;;
26325;SDS011;14032;52.510;7.342;2023-07-13T06:48:21;13.65;;;3.30;;
26325;SDS011;14032;52.510;7.342;2023-07-13T06:50:47;10.93;;;3.33;;
26325;SDS011;14032;52.510;7.342;2023-07-13T06:53:15;14.15;;;3.70;;
26325;SDS011;14032;52.510;7.342;2023-07-13T06:55:43;13.65;;;3.47;;
26325;SDS011;14032;52.510;7.342;2023-07-13T06:58:09;18.83;;;3.90;;
26325;SDS011;14032;52.510;7.342;2023-07-13T07:00:35;10.27;;;3.03;;
26325;SDS011;14032;52.510;7.342;2023-07-13T07:03:00;9.93;;;3.30;;
26325;SDS011;14032;52.510;7.342;2023-07-13T07:05:26;11.80;;;3.00;;
26325;SDS011;14032;52.510;7.342;2023-07-13T07:07:53;10.48;;;2.90;;
26325;SDS011;14032;52.510;7.342;2023-07-13T07:10:20;14.40;;;3.38;;
26325;SDS011;14032;52.510;7.342;2023-07-13T07:12:46;10.35;;;3.10;;
26325;SDS011;14032;52.510;7.342;2023-07-13T07:15:11;13.02;;;3.25;;
26325;SDS011;14032;52.510;7.342;2023-07-13T07:17:38;15.32;;;3.13;;
26325;SDS011;14032;52.510;7.342;2023-07-13T07:20:04;13.07;;;3.35;;
26325;SDS011;14032;52.510;7.342;2023-07-13T07:22:30;11.40;;;2.85;;
26325;SDS011;14032;52.510;7.342;2023-07-13T07:24:56;10.57;;;2.85;;
26325;SDS011;14032;52.510;7.342;2023-07-13T07:27:23;12.32;;;3.58;;
26325;SDS011;14032;52.510;7.342;2023-07-13T07:29:49;11.32;;;2.72;;
26325;SDS011;14032;52.510;7.342;2023-07-13T07:32:15;16.15;;;3.22;;
26325;SDS011;14032;52.510;7.342;2023-07-13T07:34:41;9.32;;;3.30;;
26325;SDS011;14032;52.510;7.342;2023-07-13T07:37:06;17.60;;;3.70;;
26325;SDS011;14032;52.510;7.342;2023-07-13T07:39:34;12.88;;;3.10;;
26325;SDS011;14032;52.510;7.342;2023-07-13T07:42:00;14.45;;;3.53;;
26325;SDS011;14032;52.510;7.342;2023-07-13T07:44:25;14.70;;;3.92;;
26325;SDS011;14032;52.510;7.342;2023-07-13T07:46:52;9.75;;;2.92;;
26325;SDS011;14032;52.510;7.342;2023-07-13T07:49:17;14.35;;;3.38;;
26325;SDS011;14032;52.510;7.342;2023-07-13T07:51:43;13.07;;;3.25;;
26325;SDS011;14032;52.510;7.342;2023-07-13T07:54:09;15.73;;;4.15;;
26325;SDS011;14032;52.510;7.342;2023-07-13T07:56:34;14.13;;;3.50;;
26325;SDS011;14032;52.510;7.342;2023-07-13T07:59:00;14.68;;;4.05;;
26325;SDS011;14032;52.510;7.342;2023-07-13T08:01:25;16.92;;;3.45;;
26325;SDS011;14032;52.510;7.342;2023-07-13T08:03:51;13.88;;;3.10;;
26325;SDS011;14032;52.510;7.342;2023-07-13T08:06:17;10.73;;;3.47;;
26325;SDS011;14032;52.510;7.342;2023-07-13T08:08:44;13.63;;;4.00;;
26325;SDS011;14032;52.510;7.342;2023-07-13T08:11:10;11.05;;;3.20;;
26325;SDS011;14032;52.510;7.342;2023-07-13T08:13:36;12.73;;;3.35;;
26325;SDS011;14032;52.510;7.342;2023-07-13T08:16:03;16.90;;;4.03;;
26325;SDS011;14032;52.510;7.342;2023-07-13T08:18:30;11.70;;;3.38;;
26325;SDS011;14032;52.510;7.342;2023-07-13T08:20:56;10.98;;;3.50;;
26325;SDS011;14032;52.510;7.342;2023-07-13T08:23:22;14.85;;;3.80;;
26325;SDS011;14032;52.510;7.342;2023-07-13T08:25:54;12.90;;;3.40;;
26325;SDS011;14032;52.510;7.342;2023-07-13T08:28:23;15.30;;;3.85;;
26325;SDS011;14032;52.510;7.342;2023-07-13T08:30:49;11.80;;;3.65;;
26325;SDS011;14032;52.510;7.342;2023-07-13T08:33:18;10.60;;;3.22;;
26325;SDS011;14032;52.510;7.342;2023-07-13T08:35:47;15.95;;;4.25;;
26325;SDS011;14032;52.510;7.342;2023-07-13T08:38:13;11.35;;;3.47;;
26325;SDS011;14032;52.510;7.342;2023-07-13T08:40:40;10.60;;;4.10;;
26325;SDS011;14032;52.510;7.342;2023-07-13T08:43:08;9.38;;;3.90;;
26325;SDS011;14032;52.510;7.342;2023-07-13T08:45:51;14.10;;;3.90;;
26325;SDS011;14032;52.510;7.342;2023-07-13T08:48:35;17.05;;;4.45;;
26325;SDS011;14032;52.510;7.342;2023-07-13T08:54:03;9.15;;;3.65;;
26325;SDS011;14032;52.510;7.342;2023-07-13T08:56:30;16.38;;;4.18;;
26325;SDS011;14032;52.510;7.342;2023-07-13T08:58:59;12.18;;;4.60;;
26325;SDS011;14032;52.510;7.342;2023-07-13T09:04:37;12.27;;;3.70;;
26325;SDS011;14032;52.510;7.342;2023-07-13T09:10:16;9.57;;;3.17;;
26325;SDS011;14032;52.510;7.342;2023-07-13T09:15:51;8.43;;;3.92;;
26325;SDS011;14032;52.510;7.342;2023-07-13T09:18:25;13.27;;;3.90;;
26325;SDS011;14032;52.510;7.342;2023-07-13T09:20:56;9.90;;;3.88;;
26325;SDS011;14032;52.510;7.342;2023-07-13T09:23:24;11.20;;;3.88;;
26325;SDS011;14032;52.510;7.342;2023-07-13T09:25:58;9.73;;;3.70;;
26325;SDS011;14032;52.510;7.342;2023-07-13T09:28:51;8.20;;;3.78;;
26325;SDS011;14032;52.510;7.342;2023-07-13T09:31:24;11.93;;;3.90;;
26325;SDS011;14032;52.510;7.342;2023-07-13T09:33:50;10.65;;;3.53;;
26325;SDS011;14032;52.510;7.342;2023-07-13T09:36:20;7.82;;;3.53;;
26325;SDS011;14032;52.510;7.342;2023-07-13T09:38:49;9.60;;;3.60;;
26325;SDS011;14032;52.510;7.342;2023-07-13T09:41:46;8.20;;;3.25;;
26325;SDS011;14032;52.510;7.342;2023-07-13T09:44:33;11.02;;;4.25;;
26325;SDS011;14032;52.510;7.342;2023-07-13T09:49:27;14.20;;;4.47;;
26325;SDS011;14032;52.510;7.342;2023-07-13T09:52:05;14.40;;;3.70;;
26325;SDS011;14032;52.510;7.342;2023-07-13T09:54:33;9.82;;;3.92;;
26325;SDS011;14032;52.510;7.342;2023-07-13T09:57:01;10.68;;;4.28;;
26325;SDS011;14032;52.510;7.342;2023-07-13T09:59:32;12.93;;;3.88;;
26325;SDS011;14032;52.510;7.342;2023-07-13T10:01:59;13.05;;;4.50;;
26325;SDS011;14032;52.510;7.342;2023-07-13T10:04:34;13.00;;;4.90;;
26325;SDS011;14032;52.510;7.342;2023-07-13T10:07:12;16.27;;;4.80;;
26325;SDS011;14032;52.510;7.342;2023-07-13T10:09:40;12.18;;;4.47;;
26325;SDS011;14032;52.510;7.342;2023-07-13T10:12:15;14.38;;;4.15;;
26325;SDS011;14032;52.510;7.342;2023-07-13T10:14:41;14.43;;;4.70;;
26325;SDS011;14032;52.510;7.342;2023-07-13T10:17:12;11.85;;;4.40;;
26325;SDS011;14032;52.510;7.342;2023-07-13T10:19:39;15.07;;;5.05;;
26325;SDS011;14032;52.510;7.342;2023-07-13T10:25:17;15.85;;;4.70;;
26325;SDS011;14032;52.510;7.342;2023-07-13T10:27:56;16.65;;;4.38;;
26325;SDS011;14032;52.510;7.342;2023-07-13T10:30:31;17.52;;;5.00;;
26325;SDS011;14032;52.510;7.342;2023-07-13T10:33:01;11.70;;;4.82;;
26325;SDS011;14032;52.510;7.342;2023-07-13T10:35:29;12.65;;;4.60;;
26325;SDS011;14032;52.510;7.342;2023-07-13T10:38:06;9.98;;;4.10;;
26325;SDS011;14032;52.510;7.342;2023-07-13T10:40:40;11.10;;;4.30;;
26325;SDS011;14032;52.510;7.342;2023-07-13T10:43:31;12.13;;;4.10;;
26325;SDS011;14032;52.510;7.342;2023-07-13T10:46:03;15.38;;;4.00;;
26325;SDS011;14032;52.510;7.342;2023-07-13T10:48:34;8.73;;;3.90;;
26325;SDS011;14032;52.510;7.342;2023-07-13T10:51:02;8.70;;;4.13;;
26325;SDS011;14032;52.510;7.342;2023-07-13T10:53:33;6.00;;;3.42;;
26325;SDS011;14032;52.510;7.342;2023-07-13T10:56:02;6.22;;;3.42;;
26325;SDS011;14032;52.510;7.342;2023-07-13T10:58:37;6.55;;;3.53;;
26325;SDS011;14032;52.510;7.342;2023-07-13T11:08:54;6.40;;;3.50;;
26325;SDS011;14032;52.510;7.342;2023-07-13T11:18:47;12.82;;;7.35;;
26325;SDS011;14032;52.510;7.342;2023-07-13T11:21:16;20.98;;;9.70;;
26325;SDS011;14032;52.510;7.342;2023-07-13T11:23:53;15.88;;;8.40;;
26325;SDS011;14032;52.510;7.342;2023-07-13T11:26:42;15.57;;;8.70;;
26325;SDS011;14032;52.510;7.342;2023-07-13T11:31:54;15.27;;;6.90;;
26325;SDS011;14032;52.510;7.342;2023-07-13T11:34:27;13.90;;;7.10;;
26325;SDS011;14032;52.510;7.342;2023-07-13T11:36:52;12.20;;;7.88;;
26325;SDS011;14032;52.510;7.342;2023-07-13T11:39:24;22.80;;;8.80;;
26325;SDS011;14032;52.510;7.342;2023-07-13T11:41:56;34.20;;;10.43;;
26325;SDS011;14032;52.510;7.342;2023-07-13T11:44:28;34.83;;;11.75;;
26325;SDS011;14032;52.510;7.342;2023-07-13T11:46:56;22.17;;;8.95;;
26325;SDS011;14032;52.510;7.342;2023-07-13T11:49:26;11.10;;;6.75;;
26325;SDS011;14032;52.510;7.342;2023-07-13T11:51:54;13.68;;;7.55;;
26325;SDS011;14032;52.510;7.342;2023-07-13T11:54:25;13.68;;;7.05;;
26325;SDS011;14032;52.510;7.342;2023-07-13T11:56:53;10.93;;;6.57;;
26325;SDS011;14032;52.510;7.342;2023-07-13T11:59:25;18.35;;;7.13;;
26325;SDS011;14032;52.510;7.342;2023-07-13T12:01:52;16.67;;;7.85;;
26325;SDS011;14032;52.510;7.342;2023-07-13T12:04:37;12.35;;;8.02;;
26325;SDS011;14032;52.510;7.342;2023-07-13T12:07:05;12.77;;;8.13;;
26325;SDS011;14032;52.510;7.342;2023-07-13T12:09:33;12.80;;;8.25;;
26325;SDS011;14032;52.510;7.342;2023-07-13T12:12:01;14.23;;;8.52;;
26325;SDS011;14032;52.510;7.342;2023-07-13T12:14:27;12.00;;;7.53;;
26325;SDS011;14032;52.510;7.342;2023-07-13T12:16:53;10.98;;;7.80;;
26325;SDS011;14032;52.510;7.342;2023-07-13T12:19:23;12.20;;;8.00;;
26325;SDS011;14032;52.510;7.342;2023-07-13T12:21:53;16.55;;;8.77;;
26325;SDS011;14032;52.510;7.342;2023-07-13T12:24:21;18.70;;;9.73;;
26325;SDS011;14032;52.510;7.342;2023-07-13T12:27:05;18.58;;;10.35;;
26325;SDS011;14032;52.510;7.342;2023-07-13T12:29:32;14.95;;;10.18;;
26325;SDS011;14032;52.510;7.342;2023-07-13T12:31:58;15.95;;;9.65;;
26325;SDS011;14032;52.510;7.342;2023-07-13T12:34:24;15.30;;;8.98;;
26325;SDS011;14032;52.510;7.342;2023-07-13T12:37:01;14.13;;;10.30;;
26325;SDS011;14032;52.510;7.342;2023-07-13T12:39:38;16.02;;;10.88;;
26325;SDS011;14032;52.510;7.342;2023-07-13T12:44:46;20.48;;;12.18;;
26325;SDS011;14032;52.510;7.342;2023-07-13T12:47:12;15.10;;;11.05;;
26325;SDS011;14032;52.510;7.342;2023-07-13T12:49:43;16.45;;;11.15;;
26325;SDS011;14032;52.510;7.342;2023-07-13T12:52:14;15.43;;;9.68;;
26325;SDS011;14032;52.510;7.342;2023-07-13T12:55:09;17.10;;;10.43;;
26325;SDS011;14032;52.510;7.342;2023-07-13T12:57:57;17.45;;;11.93;;
26325;SDS011;14032;52.510;7.342;2023-07-13T13:02:53;19.33;;;12.93;;
26325;SDS011;14032;52.510;7.342;2023-07-13T13:05:20;18.77;;;11.93;;
26325;SDS011;14032;52.510;7.342;2023-07-13T13:07:48;23.08;;;13.32;;
26325;SDS011;14032;52.510;7.342;2023-07-13T13:10:14;19.45;;;13.15;;
26325;SDS011;14032;52.510;7.342;2023-07-13T13:12:40;18.77;;;12.75;;
26325;SDS011;14032;52.510;7.342;2023-07-13T13:15:07;18.65;;;12.23;;
26325;SDS011;14032;52.510;7.342;2023-07-13T13:17:35;19.70;;;12.45;;
26325;SDS011;14032;52.510;7.342;2023-07-13T13:20:01;13.35;;;10.05;;
26325;SDS011;14032;52.510;7.342;2023-07-13T13:22:27;13.45;;;9.48;;
26325;SDS011;14032;52.510;7.342;2023-07-13T13:24:52;14.00;;;9.50;;
26325;SDS011;14032;52.510;7.342;2023-07-13T13:27:22;15.57;;;8.48;;
26325;SDS011;14032;52.510;7.342;2023-07-13T13:29:49;10.75;;;7.68;;
26325;SDS011;14032;52.510;7.342;2023-07-13T13:32:19;13.70;;;8.55;;
26325;SDS011;14032;52.510;7.342;2023-07-13T13:34:45;14.80;;;10.07;;
26325;SDS011;14032;52.510;7.342;2023-07-13T13:37:16;8.48;;;5.85;;
26325;SDS011;14032;52.510;7.342;2023-07-13T13:39:44;10.70;;;5.20;;
26325;SDS011;14032;52.510;7.342;2023-07-13T13:42:10;10.85;;;5.75;;
26325;SDS011;14032;52.510;7.342;2023-07-13T13:44:39;12.88;;;7.53;;
26325;SDS011;14032;52.510;7.342;2023-07-13T13:47:17;12.50;;;7.45;;
26325;SDS011;14032;52.510;7.342;2023-07-13T13:49:53;8.97;;;6.03;;
26325;SDS011;14032;52.510;7.342;2023-07-13T13:52:21;7.45;;;4.28;;
26325;SDS011;14032;52.510;7.342;2023-07-13T13:54:47;5.38;;;2.90;;
26325;SDS011;14032;52.510;7.342;2023-07-13T13:57:13;8.50;;;3.45;;
26325;SDS011;14032;52.510;7.342;2023-07-13T13:59:39;6.63;;;3.38;;
26325;SDS011;14032;52.510;7.342;2023-07-13T14:02:19;7.15;;;3.00;;
26325;SDS011;14032;52.510;7.342;2023-07-13T14:04:50;6.13;;;3.45;;
26325;SDS011;14032;52.510;7.342;2023-07-13T14:07:21;9.85;;;3.10;;
26325;SDS011;14032;52.510;7.342;2023-07-13T14:09:47;5.15;;;3.15;;
26325;SDS011;14032;52.510;7.342;2023-07-13T14:12:13;5.13;;;3.10;;
26325;SDS011;14032;52.510;7.342;2023-07-13T14:14:38;6.55;;;3.72;;
26325;SDS011;14032;52.510;7.342;2023-07-13T14:17:04;7.25;;;3.50;;
26325;SDS011;14032;52.510;7.342;2023-07-13T14:19:30;6.13;;;3.22;;
26325;SDS011;14032;52.510;7.342;2023-07-13T14:21:55;10.00;;;4.10;;
26325;SDS011;14032;52.510;7.342;2023-07-13T14:24:21;6.13;;;3.47;;
26325;SDS011;14032;52.510;7.342;2023-07-13T14:26:46;10.95;;;3.53;;
26325;SDS011;14032;52.510;7.342;2023-07-13T14:29:13;8.63;;;3.75;;
26325;SDS011;14032;52.510;7.342;2023-07-13T14:31:41;10.65;;;4.65;;
26325;SDS011;14032;52.510;7.342;2023-07-13T14:34:08;10.02;;;4.65;;
26325;SDS011;14032;52.510;7.342;2023-07-13T14:36:42;10.43;;;4.10;;
26325;SDS011;14032;52.510;7.342;2023-07-13T14:39:17;8.82;;;4.07;;
26325;SDS011;14032;52.510;7.342;2023-07-13T14:41:49;10.82;;;4.57;;
26325;SDS011;14032;52.510;7.342;2023-07-13T14:44:17;7.28;;;4.10;;
26325;SDS011;14032;52.510;7.342;2023-07-13T14:46:46;6.07;;;3.53;;
26325;SDS011;14032;52.510;7.342;2023-07-13T14:52:38;11.82;;;3.88;;
26325;SDS011;14032;52.510;7.342;2023-07-13T14:54:46;7.38;;;3.78;;
26325;SDS011;14032;52.510;7.342;2023-07-13T14:57:15;6.97;;;3.85;;
26325;SDS011;14032;52.510;7.342;2023-07-13T14:59:43;8.45;;;4.32;;
26325;SDS011;14032;52.510;7.342;2023-07-13T15:04:43;9.45;;;4.18;;
26325;SDS011;14032;52.510;7.342;2023-07-13T15:07:10;9.90;;;3.90;;
26325;SDS011;14032;52.510;7.342;2023-07-13T15:09:38;11.30;;;4.43;;
26325;SDS011;14032;52.510;7.342;2023-07-13T15:12:04;11.68;;;4.03;;
26325;SDS011;14032;52.510;7.342;2023-07-13T15:14:30;6.88;;;4.00;;
26325;SDS011;14032;52.510;7.342;2023-07-13T15:16:56;7.15;;;3.80;;
26325;SDS011;14032;52.510;7.342;2023-07-13T15:19:21;7.93;;;3.80;;
26325;SDS011;14032;52.510;7.342;2023-07-13T15:21:48;6.57;;;3.72;;
26325;SDS011;14032;52.510;7.342;2023-07-13T15:24:15;11.57;;;4.50;;
26325;SDS011;14032;52.510;7.342;2023-07-13T15:26:41;7.88;;;3.75;;
26325;SDS011;14032;52.510;7.342;2023-07-13T15:29:11;9.13;;;4.18;;